createdAt,value
2022-08-09T00:08:43.244Z,3.10
2022-08-09T00:18:46.881Z,3.30
2022-08-09T00:28:53.256Z,3.30
2022-08-09T00:38:56.520Z,3.65
2022-08-09T00:49:01.125Z,5.70
2022-08-09T00:59:07.402Z,3.65
2022-08-09T01:09:21.296Z,3.90
2022-08-09T01:19:39.934Z,3.60
2022-08-09T01:29:56.163Z,4.68
2022-08-09T01:40:03.685Z,7.13
2022-08-09T01:50:10.817Z,4.43
2022-08-09T02:00:35.157Z,3.92
2022-08-09T02:10:42.834Z,4.63
2022-08-09T02:21:00.744Z,4.72
2022-08-09T02:31:09.403Z,6.15
2022-08-09T02:41:16.562Z,4.53
2022-08-09T02:51:22.777Z,4.45
2022-08-09T03:01:58.509Z,4.15
2022-08-09T03:12:09.694Z,4.65
2022-08-09T03:22:24.886Z,6.10
2022-08-09T03:32:32.206Z,5.38
2022-08-09T03:42:35.686Z,5.30
2022-08-09T03:52:42.473Z,6.22
2022-08-09T04:02:46.072Z,5.50
2022-08-09T04:12:57.694Z,5.32
2022-08-09T04:23:01.953Z,5.70
2022-08-09T04:33:06.589Z,5.38
2022-08-09T04:43:10.937Z,6.20
2022-08-09T04:53:18.284Z,5.00
2022-08-09T05:03:40.077Z,5.13
2022-08-09T05:13:45.917Z,6.80
2022-08-09T05:23:54.412Z,6.05
2022-08-09T05:34:04.443Z,6.00
2022-08-09T05:44:07.511Z,5.57
2022-08-09T05:54:13.290Z,6.85
2022-08-09T06:04:23.364Z,6.53
2022-08-09T06:14:28.511Z,5.20
2022-08-09T06:24:31.677Z,7.63
2022-08-09T06:34:36.164Z,6.47
2022-08-09T06:44:39.705Z,7.72
2022-08-09T06:54:44.161Z,4.97
2022-08-09T07:04:47.294Z,3.95
2022-08-09T07:14:53.548Z,5.40
2022-08-09T07:24:56.724Z,5.97
2022-08-09T07:35:01.165Z,3.58
2022-08-09T07:45:22.692Z,3.55
2022-08-09T07:55:41.514Z,3.85
2022-08-09T08:05:58.282Z,4.03
2022-08-09T08:16:03.111Z,5.50
2022-08-09T08:26:11.407Z,4.00
2022-08-09T08:36:22.408Z,3.80
2022-08-09T08:46:59.429Z,3.78
2022-08-09T08:57:00.679Z,5.30
2022-08-09T09:07:10.747Z,4.32
2022-08-09T09:17:16.393Z,3.83
2022-08-09T09:28:04.274Z,5.18
2022-08-09T09:37:47.193Z,4.60
2022-08-09T09:47:56.674Z,3.63
2022-08-09T09:58:15.680Z,3.97
2022-08-09T10:08:27.832Z,3.80
2022-08-09T10:18:33.031Z,3.28
2022-08-09T10:28:39.062Z,3.58
2022-08-09T10:38:57.257Z,3.47
2022-08-09T10:49:14.340Z,3.50
2022-08-09T10:59:43.051Z,3.08
2022-08-09T11:09:59.677Z,4.60
2022-08-09T11:20:19.910Z,3.42
2022-08-09T11:30:35.687Z,3.22
2022-08-09T11:40:41.268Z,3.10
2022-08-09T11:52:49.084Z,3.15
2022-08-09T12:02:16.998Z,3.05
2022-08-09T12:12:05.831Z,3.08
2022-08-09T12:22:20.223Z,3.10
2022-08-09T12:32:27.958Z,2.42
2022-08-09T12:42:32.611Z,4.63
2022-08-09T12:52:43.011Z,3.92
2022-08-09T13:03:06.346Z,3.00
2022-08-09T13:13:13.031Z,2.85
2022-08-09T13:24:42.261Z,2.50
2022-08-09T13:33:52.503Z,2.17
2022-08-09T13:43:58.300Z,4.45
2022-08-09T13:54:02.224Z,4.93
2022-08-09T14:04:07.065Z,2.75
2022-08-09T14:14:23.377Z,1.70
2022-08-09T14:24:32.309Z,2.53
2022-08-09T14:34:35.825Z,2.65
2022-08-09T14:44:48.388Z,2.13
2022-08-09T14:54:52.453Z,3.20
2022-08-09T15:04:56.918Z,3.17
2022-08-09T15:15:01.728Z,5.22
2022-08-09T15:25:07.089Z,1.92
2022-08-09T15:35:17.813Z,2.60
2022-08-09T15:45:29.854Z,2.53
2022-08-09T15:55:34.555Z,5.65
2022-08-09T16:06:03.286Z,2.47
2022-08-09T16:16:13.339Z,2.30
2022-08-09T16:26:34.555Z,3.75
2022-08-09T16:36:39.300Z,2.75
2022-08-09T16:46:55.365Z,2.05
2022-08-09T16:57:05.276Z,3.60
2022-08-09T17:08:45.392Z,2.08
2022-08-09T17:17:51.029Z,3.20
2022-08-09T17:27:57.522Z,1.80
2022-08-09T17:38:29.148Z,1.58
2022-08-09T17:48:28.670Z,3.13
2022-08-09T17:58:32.610Z,4.95
2022-08-09T18:08:40.748Z,2.35
2022-08-09T18:18:49.286Z,3.10
2022-08-09T18:30:37.727Z,2.15
2022-08-09T18:39:17.213Z,1.80
2022-08-09T18:49:23.686Z,1.95
2022-08-09T18:59:26.967Z,2.30
2022-08-09T19:10:13.799Z,2.20
2022-08-09T19:20:07.808Z,2.72
2022-08-09T19:30:24.669Z,3.80
2022-08-09T19:40:33.135Z,1.70
2022-08-09T19:50:50.186Z,3.85
2022-08-09T20:00:55.033Z,3.80
2022-08-09T20:11:02.386Z,1.88
2022-08-09T20:21:08.568Z,2.75
2022-08-09T20:31:13.719Z,2.10
2022-08-09T20:41:18.605Z,2.00
2022-08-09T20:51:41.012Z,3.28
2022-08-09T21:01:50.689Z,2.42
2022-08-09T21:22:38.019Z,2.40
2022-08-09T21:32:35.580Z,2.00
2022-08-09T21:42:38.719Z,3.58
2022-08-09T21:52:46.628Z,2.13
2022-08-09T22:02:59.408Z,1.90
2022-08-09T22:13:07.490Z,2.88
2022-08-09T22:23:14.743Z,2.03
2022-08-09T22:33:19.548Z,2.92
2022-08-09T22:44:00.511Z,1.92
2022-08-09T22:54:02.927Z,2.10
2022-08-09T23:04:07.425Z,1.80
2022-08-09T23:14:17.507Z,2.10
2022-08-09T23:24:33.389Z,2.25
2022-08-09T23:34:38.143Z,4.43
2022-08-09T23:44:41.263Z,2.78
2022-08-09T23:54:45.677Z,3.00
